createdAt,value
2023-03-17T00:02:24.533Z,0.98
2023-03-17T00:04:52.989Z,1.10
2023-03-17T00:07:20.120Z,1.00
2023-03-17T00:09:47.677Z,1.60
2023-03-17T00:12:16.884Z,1.52
2023-03-17T00:14:50.159Z,1.65
2023-03-17T00:17:17.896Z,1.00
2023-03-17T00:19:48.810Z,1.73
2023-03-17T00:22:27.548Z,1.20
2023-03-17T00:24:58.964Z,1.17
2023-03-17T00:27:26.787Z,1.13
2023-03-17T00:29:55.273Z,1.20
2023-03-17T00:32:26.821Z,1.63
2023-03-17T00:34:54.988Z,1.45
2023-03-17T00:37:22.638Z,1.27
2023-03-17T00:39:53.644Z,1.33
2023-03-17T00:42:22.652Z,1.35
2023-03-17T00:44:50.642Z,1.00
2023-03-17T00:47:19.222Z,1.17
2023-03-17T00:49:48.813Z,1.00
2023-03-17T00:52:16.060Z,1.17
2023-03-17T00:54:43.859Z,1.08
2023-03-17T00:57:13.383Z,1.23
2023-03-17T00:59:43.102Z,1.48
2023-03-17T01:02:14.551Z,1.20
2023-03-17T01:04:49.972Z,1.50
2023-03-17T01:07:21.860Z,1.55
2023-03-17T01:09:50.384Z,1.63
2023-03-17T01:12:18.969Z,1.13
2023-03-17T01:14:46.556Z,1.10
2023-03-17T01:17:17.105Z,1.35
2023-03-17T01:19:46.950Z,1.60
2023-03-17T01:22:14.619Z,1.42
2023-03-17T01:24:42.553Z,1.30
2023-03-17T01:32:09.602Z,0.70
2023-03-17T01:34:37.430Z,1.10
2023-03-17T01:37:04.874Z,1.23
2023-03-17T01:39:32.209Z,1.35
2023-03-17T01:42:02.014Z,1.23
2023-03-17T01:44:30.029Z,0.80
2023-03-17T01:49:36.058Z,1.23
2023-03-17T01:52:19.379Z,1.30
2023-03-17T01:54:50.867Z,1.20
2023-03-17T01:57:54.727Z,1.00
2023-03-17T02:00:24.908Z,1.10
2023-03-17T02:02:55.763Z,1.10
2023-03-17T02:05:26.971Z,1.15
2023-03-17T02:07:56.208Z,0.90
2023-03-17T02:10:27.012Z,1.42
2023-03-17T02:13:04.267Z,1.08
2023-03-17T02:15:41.820Z,1.20
2023-03-17T02:18:10.253Z,1.00
2023-03-17T02:20:37.694Z,1.35
2023-03-17T02:23:07.289Z,1.23
2023-03-17T02:25:37.782Z,1.33
2023-03-17T02:28:14.550Z,1.23
2023-03-17T02:30:43.498Z,1.30
2023-03-17T02:33:12.388Z,1.80
2023-03-17T02:35:41.058Z,1.45
2023-03-17T02:38:08.574Z,1.33
2023-03-17T02:40:35.993Z,1.23
2023-03-17T02:43:04.797Z,1.05
2023-03-17T02:45:32.575Z,1.58
2023-03-17T02:48:01.000Z,1.52
2023-03-17T02:50:29.772Z,1.00
2023-03-17T02:52:57.766Z,1.20
2023-03-17T02:55:25.401Z,1.20
2023-03-17T02:57:52.973Z,1.00
2023-03-17T03:00:22.001Z,1.40
2023-03-17T03:02:50.312Z,1.30
2023-03-17T03:05:18.101Z,1.15
2023-03-17T03:10:14.294Z,1.15
2023-03-17T03:15:10.085Z,0.75
2023-03-17T03:17:44.731Z,1.23
2023-03-17T03:20:21.800Z,1.02
2023-03-17T03:22:49.901Z,1.08
2023-03-17T03:25:24.160Z,1.05
2023-03-17T03:27:55.165Z,1.15
2023-03-17T03:30:26.518Z,0.80
2023-03-17T03:33:07.245Z,1.20
2023-03-17T03:35:39.281Z,0.98
2023-03-17T03:38:08.909Z,1.42
2023-03-17T03:40:41.824Z,1.42
2023-03-17T03:43:22.451Z,1.30
2023-03-17T03:45:58.211Z,1.33
2023-03-17T03:48:27.308Z,1.95
2023-03-17T03:51:12.187Z,1.02
2023-03-17T03:53:40.884Z,1.08
2023-03-17T03:56:11.827Z,1.70
2023-03-17T03:58:50.177Z,1.45
2023-03-17T04:01:19.031Z,1.08
2023-03-17T04:03:49.735Z,1.50
2023-03-17T04:06:21.721Z,0.77
2023-03-17T04:08:57.144Z,1.08
2023-03-17T04:11:27.587Z,1.27
2023-03-17T04:14:01.892Z,1.70
2023-03-17T04:16:28.822Z,1.65
2023-03-17T04:18:55.820Z,1.65
2023-03-17T04:21:22.706Z,1.13
2023-03-17T04:23:57.200Z,1.95
2023-03-17T04:26:44.430Z,1.10
2023-03-17T04:29:16.270Z,1.40
2023-03-17T04:31:46.831Z,1.30
2023-03-17T04:34:16.973Z,1.60
2023-03-17T04:36:46.507Z,1.85
2023-03-17T04:39:15.313Z,1.63
2023-03-17T04:41:42.718Z,1.80
2023-03-17T04:44:13.568Z,1.80
2023-03-17T04:46:41.035Z,2.05
2023-03-17T04:49:08.715Z,1.15
2023-03-17T04:51:37.233Z,1.27
2023-03-17T04:54:05.793Z,1.73
2023-03-17T04:56:33.517Z,1.50
2023-03-17T04:59:04.444Z,1.20
2023-03-17T05:01:32.810Z,1.40
2023-03-17T05:04:00.345Z,1.33
2023-03-17T05:06:28.935Z,1.17
2023-03-17T05:08:56.426Z,1.55
2023-03-17T05:11:25.769Z,1.42
2023-03-17T05:13:53.285Z,1.80
2023-03-17T05:16:21.076Z,1.27
2023-03-17T05:18:49.151Z,1.27
2023-03-17T05:21:17.215Z,1.13
2023-03-17T05:23:45.479Z,1.50
2023-03-17T05:26:13.609Z,1.33
2023-03-17T05:28:41.357Z,0.98
2023-03-17T05:31:10.948Z,1.05
2023-03-17T05:33:39.230Z,0.90
2023-03-17T05:36:07.476Z,0.90
2023-03-17T05:38:35.162Z,1.10
2023-03-17T05:41:03.200Z,1.58
2023-03-17T05:45:57.831Z,1.60
2023-03-17T05:48:25.782Z,1.15
2023-03-17T05:50:56.202Z,1.98
2023-03-17T05:53:24.190Z,1.10
2023-03-17T05:58:21.195Z,3.35
2023-03-17T06:00:57.934Z,3.30
2023-03-17T06:03:25.901Z,2.72
2023-03-17T06:05:53.766Z,3.28
2023-03-17T06:08:21.575Z,3.10
2023-03-17T06:10:48.958Z,2.83
2023-03-17T06:13:16.701Z,2.72
2023-03-17T06:15:54.293Z,2.90
2023-03-17T06:18:21.935Z,2.65
2023-03-17T06:20:49.381Z,2.40
2023-03-17T06:23:17.375Z,3.58
2023-03-17T06:28:12.193Z,1.02
2023-03-17T06:30:40.834Z,1.35
2023-03-17T06:33:08.893Z,0.60
2023-03-17T06:38:04.693Z,0.68
2023-03-17T06:40:32.555Z,0.63
2023-03-17T06:43:00.535Z,0.70
2023-03-17T06:45:28.127Z,1.25
2023-03-17T06:47:55.772Z,1.23
2023-03-17T06:50:23.687Z,1.05
2023-03-17T06:55:19.568Z,1.27
2023-03-17T06:57:49.137Z,0.80
2023-03-17T07:00:18.779Z,0.90
2023-03-17T07:02:46.576Z,0.75
2023-03-17T07:05:14.426Z,0.50
2023-03-17T07:07:42.480Z,0.80
2023-03-17T07:10:11.412Z,1.13
2023-03-17T07:12:38.998Z,1.10
2023-03-17T07:15:07.013Z,1.10
2023-03-17T07:17:34.717Z,0.82
2023-03-17T07:20:02.118Z,0.98
2023-03-17T07:22:29.722Z,0.90
2023-03-17T07:24:57.787Z,1.17
2023-03-17T07:29:55.191Z,0.90
2023-03-17T07:32:23.657Z,0.82
2023-03-17T07:34:51.477Z,1.63
2023-03-17T07:37:27.246Z,0.70
2023-03-17T07:39:54.575Z,1.17
2023-03-17T07:42:24.604Z,1.10
2023-03-17T07:44:52.111Z,2.13
2023-03-17T07:47:19.425Z,1.52
2023-03-17T07:49:47.620Z,1.30
2023-03-17T07:54:43.266Z,0.90
2023-03-17T07:57:14.000Z,0.82
2023-03-17T07:59:42.119Z,0.93
2023-03-17T08:04:42.674Z,1.30
2023-03-17T08:07:11.320Z,1.77
2023-03-17T08:09:38.780Z,1.52
2023-03-17T08:12:07.244Z,0.90
2023-03-17T08:14:35.161Z,1.17
2023-03-17T08:19:37.256Z,0.88
2023-03-17T08:22:04.933Z,1.42
2023-03-17T08:24:32.980Z,1.25
2023-03-17T08:27:01.033Z,1.63
2023-03-17T08:32:10.011Z,1.85
2023-03-17T08:34:37.926Z,1.25
2023-03-17T08:37:10.118Z,1.65
2023-03-17T08:39:39.523Z,1.70
2023-03-17T08:42:07.765Z,1.80
2023-03-17T08:44:44.066Z,2.28
2023-03-17T08:47:12.333Z,1.63
2023-03-17T08:49:40.203Z,1.80
2023-03-17T08:52:08.686Z,2.10
2023-03-17T08:54:39.049Z,2.47
2023-03-17T08:57:06.368Z,2.30
2023-03-17T08:59:34.702Z,1.50
2023-03-17T09:02:02.571Z,1.75
2023-03-17T09:04:30.031Z,1.30
2023-03-17T09:07:06.602Z,1.50
2023-03-17T09:09:35.697Z,1.90
2023-03-17T09:12:06.350Z,2.22
2023-03-17T09:14:42.767Z,1.38
2023-03-17T09:17:11.750Z,1.85
2023-03-17T09:19:39.123Z,1.48
2023-03-17T09:22:07.100Z,1.52
2023-03-17T09:27:02.375Z,1.55
2023-03-17T09:29:29.481Z,1.40
2023-03-17T09:32:00.929Z,2.03
2023-03-17T09:34:32.023Z,1.65
2023-03-17T09:37:00.126Z,1.52
2023-03-17T09:39:27.827Z,1.70
2023-03-17T09:42:23.365Z,1.92
2023-03-17T09:44:53.896Z,1.70
2023-03-17T09:47:41.632Z,2.55
2023-03-17T09:50:16.240Z,1.77
2023-03-17T09:52:43.826Z,2.60
2023-03-17T09:55:25.423Z,1.55
2023-03-17T09:57:59.750Z,1.73
2023-03-17T10:00:33.969Z,1.60
2023-03-17T10:03:02.485Z,1.55
2023-03-17T10:05:32.788Z,1.50
2023-03-17T10:08:37.059Z,2.30
2023-03-17T10:11:44.278Z,2.17
2023-03-17T10:14:35.772Z,1.70
2023-03-17T10:17:16.132Z,1.50
2023-03-17T10:19:53.978Z,1.13
2023-03-17T10:25:04.450Z,1.30
2023-03-17T10:27:37.435Z,0.95
2023-03-17T10:30:14.322Z,0.73
2023-03-17T10:32:43.098Z,1.63
2023-03-17T10:35:12.444Z,1.25
2023-03-17T10:37:42.564Z,1.40
2023-03-17T10:40:21.414Z,1.70
2023-03-17T10:42:53.659Z,1.30
2023-03-17T10:45:40.907Z,2.35
2023-03-17T10:48:11.189Z,1.20
2023-03-17T10:50:41.562Z,1.83
2023-03-17T10:53:28.654Z,1.98
2023-03-17T10:56:12.026Z,1.73
2023-03-17T10:58:52.546Z,1.05
2023-03-17T11:01:47.492Z,1.48
2023-03-17T11:04:28.633Z,1.10
2023-03-17T11:07:01.261Z,1.42
2023-03-17T11:09:39.421Z,1.38
2023-03-17T11:12:19.453Z,1.38
2023-03-17T11:14:48.876Z,1.45
2023-03-17T11:17:43.115Z,1.60
2023-03-17T11:20:27.401Z,2.00
2023-03-17T11:23:22.856Z,1.20
2023-03-17T11:26:03.885Z,1.63
2023-03-17T11:28:41.640Z,1.20
2023-03-17T11:31:16.986Z,1.35
2023-03-17T11:33:58.728Z,1.60
2023-03-17T11:36:51.289Z,1.45
2023-03-17T11:39:28.279Z,1.23
2023-03-17T11:42:19.026Z,2.17
2023-03-17T11:45:16.995Z,1.70
2023-03-17T11:48:02.836Z,1.92
2023-03-17T11:50:55.635Z,2.05
2023-03-17T11:53:28.501Z,1.63
2023-03-17T11:56:00.272Z,1.45
2023-03-17T11:58:40.122Z,1.70
2023-03-17T12:01:16.801Z,1.73
2023-03-17T12:03:52.390Z,0.95
2023-03-17T12:06:32.872Z,1.10
2023-03-17T12:09:26.586Z,1.40
2023-03-17T12:11:56.365Z,1.83
2023-03-17T12:14:32.948Z,1.30
2023-03-17T12:17:09.613Z,1.27
2023-03-17T12:19:43.473Z,1.65
2023-03-17T12:22:47.546Z,0.82
2023-03-17T12:25:33.946Z,1.60
2023-03-17T12:28:18.028Z,1.52
2023-03-17T12:31:00.526Z,1.70
2023-03-17T12:33:42.604Z,1.17
2023-03-17T12:36:15.712Z,1.73
2023-03-17T12:39:06.161Z,1.02
2023-03-17T12:41:45.596Z,0.93
2023-03-17T12:44:26.840Z,2.22
2023-03-17T12:47:07.188Z,2.00
2023-03-17T12:49:43.642Z,1.70
2023-03-17T12:52:39.756Z,1.55
2023-03-17T12:55:14.085Z,1.75
2023-03-17T12:57:44.783Z,1.38
2023-03-17T13:00:28.897Z,1.17
2023-03-17T13:03:15.188Z,1.42
2023-03-17T13:05:48.342Z,1.80
2023-03-17T13:08:24.865Z,1.63
2023-03-17T13:11:12.406Z,1.48
2023-03-17T13:13:55.130Z,1.23
2023-03-17T13:16:31.140Z,1.60
2023-03-17T13:19:15.606Z,1.30
2023-03-17T13:21:51.279Z,1.67
2023-03-17T13:24:18.996Z,2.05
2023-03-17T13:29:45.992Z,1.23
2023-03-17T13:32:19.328Z,1.10
2023-03-17T13:34:53.261Z,2.60
2023-03-17T13:37:49.911Z,1.35
2023-03-17T13:40:22.331Z,1.35
2023-03-17T13:43:02.719Z,1.15
2023-03-17T13:45:44.530Z,1.50
2023-03-17T13:48:29.753Z,1.48
2023-03-17T13:51:15.026Z,1.50
2023-03-17T13:53:49.633Z,1.10
2023-03-17T13:56:54.113Z,2.10
2023-03-17T13:59:54.042Z,1.38
2023-03-17T14:02:24.045Z,1.85
2023-03-17T14:04:53.927Z,1.75
2023-03-17T14:07:26.429Z,1.20
2023-03-17T14:10:00.202Z,1.42
2023-03-17T14:12:52.301Z,2.60
2023-03-17T14:15:32.422Z,1.70
2023-03-17T14:18:08.540Z,1.77
2023-03-17T14:20:36.410Z,1.80
2023-03-17T14:25:38.706Z,1.00
2023-03-17T14:28:14.428Z,1.45
2023-03-17T14:30:57.425Z,1.35
2023-03-17T14:33:31.165Z,1.70
2023-03-17T14:36:01.420Z,1.65
2023-03-17T14:38:34.754Z,2.08
2023-03-17T14:41:30.361Z,1.35
2023-03-17T14:44:00.718Z,1.67
2023-03-17T14:46:33.898Z,1.13
2023-03-17T14:49:06.108Z,1.40
2023-03-17T14:51:39.573Z,1.95
2023-03-17T14:54:22.768Z,1.88
2023-03-17T14:57:10.122Z,2.00
2023-03-17T14:59:41.161Z,1.25
2023-03-17T15:02:30.644Z,1.30
2023-03-17T15:05:03.265Z,1.52
2023-03-17T15:07:38.798Z,0.98
2023-03-17T15:10:16.195Z,1.50
2023-03-17T15:12:46.508Z,1.20
2023-03-17T15:15:35.076Z,1.33
2023-03-17T15:18:13.869Z,1.58
2023-03-17T15:20:44.542Z,1.30
2023-03-17T15:23:27.959Z,1.25
2023-03-17T15:25:57.319Z,1.33
2023-03-17T15:28:36.260Z,1.10
2023-03-17T15:31:14.190Z,1.30
2023-03-17T15:36:33.537Z,9.75
2023-03-17T15:39:06.297Z,7.07
2023-03-17T15:41:33.972Z,4.60
2023-03-17T15:44:04.034Z,4.80
2023-03-17T15:46:34.299Z,4.53
2023-03-17T15:49:01.606Z,3.35
2023-03-17T15:51:28.860Z,2.78
2023-03-17T15:53:56.029Z,1.98
2023-03-17T15:56:23.404Z,2.45
2023-03-17T15:58:52.994Z,5.93
2023-03-17T16:01:21.031Z,3.17
2023-03-17T16:06:22.704Z,1.83
2023-03-17T16:08:51.212Z,3.75
2023-03-17T16:11:23.108Z,4.07
2023-03-17T16:13:50.263Z,3.22
2023-03-17T16:16:40.357Z,2.30
2023-03-17T16:19:18.899Z,3.30
2023-03-17T16:21:46.879Z,12.80
2023-03-17T16:26:45.339Z,6.15
2023-03-17T16:29:17.791Z,5.60
2023-03-17T16:31:51.478Z,7.32
2023-03-17T16:34:25.008Z,3.40
2023-03-17T16:36:54.698Z,1.90
2023-03-17T16:39:23.808Z,2.00
2023-03-17T16:41:51.637Z,3.60
2023-03-17T16:44:21.858Z,3.97
2023-03-17T16:46:49.752Z,4.45
2023-03-17T16:49:20.735Z,3.97
2023-03-17T16:51:50.179Z,4.80
2023-03-17T16:54:20.312Z,3.88
2023-03-17T16:56:47.931Z,2.13
2023-03-17T16:59:23.862Z,1.77
2023-03-17T17:01:51.970Z,1.63
2023-03-17T17:04:19.792Z,1.50
2023-03-17T17:06:48.319Z,1.50
2023-03-17T17:09:20.347Z,1.45
2023-03-17T17:11:48.197Z,1.92
2023-03-17T17:19:20.629Z,5.78
2023-03-17T17:21:48.357Z,5.95
2023-03-17T17:24:16.297Z,4.15
2023-03-17T17:29:15.638Z,1.88
2023-03-17T17:34:12.639Z,2.10
2023-03-17T17:39:10.048Z,1.45
2023-03-17T17:41:37.742Z,1.40
2023-03-17T17:44:06.562Z,1.20
2023-03-17T17:46:35.345Z,1.58
2023-03-17T17:49:03.071Z,1.83
2023-03-17T17:51:36.014Z,2.15
2023-03-17T17:54:04.220Z,1.55
2023-03-17T17:56:37.135Z,1.92
2023-03-17T17:59:07.894Z,3.10
2023-03-17T18:01:39.591Z,2.95
2023-03-17T18:04:07.413Z,2.20
2023-03-17T18:06:35.075Z,2.58
2023-03-17T18:09:09.158Z,2.10
2023-03-17T18:11:41.484Z,2.22
2023-03-17T18:14:11.922Z,2.42
2023-03-17T18:16:49.404Z,2.25
2023-03-17T18:19:23.441Z,2.47
2023-03-17T18:21:55.592Z,2.13
2023-03-17T18:24:34.025Z,2.30
2023-03-17T18:27:05.381Z,1.30
2023-03-17T18:29:37.762Z,3.13
2023-03-17T18:32:09.717Z,1.95
2023-03-17T18:34:47.598Z,2.40
2023-03-17T18:39:52.496Z,4.38
2023-03-17T18:42:32.966Z,2.92
2023-03-17T18:45:02.324Z,3.60
2023-03-17T18:47:30.226Z,3.00
2023-03-17T18:50:01.955Z,2.88
2023-03-17T18:52:39.689Z,4.00
2023-03-17T18:55:08.434Z,3.08
2023-03-17T18:57:37.610Z,2.67
2023-03-17T19:00:09.732Z,3.30
2023-03-17T19:02:44.184Z,3.22
2023-03-17T19:05:16.041Z,2.40
2023-03-17T19:07:47.503Z,3.10
2023-03-17T19:10:24.643Z,3.22
2023-03-17T19:12:54.163Z,3.17
2023-03-17T19:15:24.938Z,2.38
2023-03-17T19:17:58.302Z,3.13
2023-03-17T19:20:31.629Z,2.63
2023-03-17T19:23:04.909Z,2.08
2023-03-17T19:25:37.802Z,2.42
2023-03-17T19:28:07.721Z,2.78
2023-03-17T19:30:35.848Z,2.40
2023-03-17T19:33:09.933Z,2.42
2023-03-17T19:35:38.053Z,3.05
2023-03-17T19:38:07.660Z,2.80
2023-03-17T19:40:37.935Z,3.47
2023-03-17T19:43:10.097Z,3.40
2023-03-17T19:45:38.585Z,2.45
2023-03-17T19:48:09.733Z,2.10
2023-03-17T19:50:38.510Z,2.17
2023-03-17T19:53:06.928Z,2.53
2023-03-17T19:55:35.379Z,2.55
2023-03-17T19:58:07.202Z,2.97
2023-03-17T20:00:38.407Z,2.10
2023-03-17T20:03:13.143Z,1.63
2023-03-17T20:05:41.481Z,1.73
2023-03-17T20:08:10.167Z,2.25
2023-03-17T20:10:49.535Z,2.08
2023-03-17T20:13:29.366Z,2.17
2023-03-17T20:16:02.507Z,2.30
2023-03-17T20:18:39.521Z,2.78
2023-03-17T20:21:13.479Z,2.42
2023-03-17T20:23:41.836Z,2.80
2023-03-17T20:26:09.976Z,3.25
2023-03-17T20:28:42.359Z,2.60
2023-03-17T20:31:10.186Z,2.67
2023-03-17T20:33:37.752Z,3.17
2023-03-17T20:36:16.641Z,2.88
2023-03-17T20:38:44.983Z,3.10
2023-03-17T20:41:15.400Z,2.88
2023-03-17T20:43:44.047Z,2.20
2023-03-17T20:46:21.253Z,3.40
2023-03-17T20:48:49.596Z,2.83
2023-03-17T20:51:18.723Z,2.22
2023-03-17T20:53:53.813Z,3.03
2023-03-17T20:56:24.250Z,2.55
2023-03-17T20:58:53.707Z,2.28
2023-03-17T21:01:22.805Z,2.20
2023-03-17T21:03:52.592Z,2.83
2023-03-17T21:06:21.100Z,2.60
2023-03-17T21:08:49.809Z,3.17
2023-03-17T21:11:19.525Z,2.03
2023-03-17T21:13:48.232Z,2.20
2023-03-17T21:16:28.392Z,1.70
2023-03-17T21:18:58.316Z,1.92
2023-03-17T21:21:27.754Z,2.00
2023-03-17T21:23:59.303Z,2.08
2023-03-17T21:26:31.019Z,2.65
2023-03-17T21:28:59.562Z,2.75
2023-03-17T21:31:30.350Z,2.35
2023-03-17T21:33:58.274Z,4.15
2023-03-17T21:36:26.490Z,2.00
2023-03-17T21:38:54.149Z,2.53
2023-03-17T21:41:33.969Z,2.30
2023-03-17T21:44:03.730Z,1.65
2023-03-17T21:46:32.363Z,1.70
2023-03-17T21:49:01.981Z,1.95
2023-03-17T21:51:32.929Z,2.13
2023-03-17T21:56:55.915Z,1.98
2023-03-17T21:59:44.143Z,1.02
2023-03-17T22:05:14.970Z,1.55
2023-03-17T22:08:23.232Z,1.63
2023-03-17T22:11:27.613Z,1.83
2023-03-17T22:17:59.138Z,1.88
2023-03-17T22:23:42.604Z,1.88
2023-03-17T22:23:54.360Z,1.17
2023-03-17T22:26:38.567Z,2.22
2023-03-17T22:29:17.163Z,1.80
2023-03-17T22:34:47.248Z,1.98
2023-03-17T22:37:26.946Z,1.85
2023-03-17T22:40:10.660Z,2.10
2023-03-17T22:43:06.444Z,2.53
2023-03-17T22:48:41.995Z,1.58
2023-03-17T22:51:35.753Z,1.27
2023-03-17T22:54:14.897Z,1.17
2023-03-17T22:56:58.993Z,1.83
2023-03-17T23:00:18.693Z,2.08
2023-03-17T23:03:03.982Z,1.73
2023-03-17T23:05:57.851Z,1.55
2023-03-17T23:11:43.640Z,1.80
2023-03-17T23:20:25.527Z,2.25
2023-03-17T23:23:00.977Z,1.80
2023-03-17T23:25:40.162Z,2.53
2023-03-17T23:28:48.100Z,1.63
2023-03-17T23:32:00.213Z,1.48
2023-03-17T23:34:33.395Z,1.48
2023-03-17T23:37:19.393Z,1.75
2023-03-17T23:39:47.393Z,2.20
2023-03-17T23:42:55.920Z,2.50
2023-03-17T23:48:06.349Z,16.80
2023-03-17T23:50:49.211Z,10.55
2023-03-17T23:54:02.370Z,10.90
2023-03-17T23:57:01.517Z,7.97
2023-03-17T23:59:52.089Z,6.65
